Time;durP1;ratioP1;P1;durP2;ratioP2;P2;SDS_P1;SDS_P2;PMS_P1;PMS_P2;Temp;Humidity;BMP_temperature;BMP_pressure;BME280_temperature;BME280_humidity;BME280_pressure;Samples;Min_cycle;Max_cycle;Signal;HPM_P1;HPM_P2
2022/01/23 00:00:57;;;;;;;68.20;34.53;;;5.40;99.90;;;6.19;100.00;102360.03;5032353;28;20028;-78
2022/01/23 00:03:23;;;;;;;65.03;34.80;;;5.40;99.90;;;6.13;100.00;102356.44;5047734;28;20022;-80
2022/01/23 00:05:53;;;;;;;66.30;34.65;;;5.30;99.90;;;6.24;100.00;102365.53;5032038;28;20100;-78
2022/01/23 00:08:21;;;;;;;69.60;34.97;;;5.40;99.90;;;6.19;100.00;102360.03;5034177;28;20112;-81
2022/01/23 00:10:55;;;;;;;68.65;32.72;;;5.40;99.90;;;6.14;100.00;102360.88;5038233;28;20496;-79
2022/01/23 00:13:27;;;;;;;61.00;33.47;;;5.30;99.90;;;6.08;100.00;102350.94;5036349;28;20109;-78
2022/01/23 00:18:38;;;;;;;71.43;33.72;;;5.30;99.90;;;6.15;100.00;102364.47;5036384;28;20056;-79
2022/01/23 00:21:05;;;;;;;65.78;32.50;;;5.30;99.90;;;6.12;100.00;102356.75;5050802;28;20401;-78
2022/01/23 00:30:19;;;;;;;59.35;31.15;;;5.30;99.90;;;6.07;100.00;102354.00;5050781;28;20022;-79
2022/01/23 00:31:51;;;;;;;64.90;32.95;;;5.30;99.90;;;6.12;100.00;102360.34;5055638;28;20047;-80
2022/01/23 00:34:19;;;;;;;66.30;32.60;;;5.30;99.90;;;6.11;100.00;102355.91;5054171;28;20029;-81
2022/01/23 00:36:49;;;;;;;62.28;33.33;;;5.30;99.90;;;6.17;100.00;102365.00;5055308;28;20116;-81
2022/01/23 00:39:18;;;;;;;63.42;32.22;;;5.30;99.90;;;6.15;100.00;102364.47;5055498;28;20555;-81
2022/01/23 00:41:44;;;;;;;65.00;34.60;;;5.30;99.90;;;6.13;100.00;102364.75;5055168;28;20086;-80
2022/01/23 00:44:09;;;;;;;69.15;33.38;;;5.30;99.90;;;6.12;100.00;102370.59;5054281;28;20029;-80
2022/01/23 00:46:38;;;;;;;67.30;32.17;;;5.30;99.90;;;6.07;100.00;102376.19;5054773;28;20496;-82
2022/01/23 00:51:38;;;;;;;62.50;30.80;;;5.30;99.90;;;6.06;100.00;102371.75;5063486;28;20053;-80
2022/01/23 00:54:11;;;;;;;57.58;29.60;;;5.20;99.90;;;6.04;100.00;102379.50;5056234;28;20033;-79
2022/01/23 00:56:38;;;;;;;62.28;29.77;;;5.20;99.90;;;6.06;100.00;102369.81;5055122;28;20060;-79
2022/01/23 00:59:05;;;;;;;57.33;29.92;;;5.20;99.90;;;6.02;100.00;102373.44;5056521;28;20079;-80
2022/01/23 01:01:32;;;;;;;56.83;28.90;;;5.20;99.90;;;6.04;100.00;102372.03;5036864;28;20106;-81
2022/01/23 01:03:58;;;;;;;56.40;29.42;;;5.20;99.90;;;6.06;100.00;102369.81;5053302;28;20104;-80
2022/01/23 01:06:24;;;;;;;53.45;27.17;;;5.20;99.90;;;6.02;100.00;102377.03;5036448;28;20041;-79
2022/01/23 01:08:53;;;;;;;51.25;26.48;;;5.20;99.90;;;5.98;100.00;102375.13;5053884;28;20064;-79
2022/01/23 01:35:39;;;;;;;54.00;25.85;;;5.10;99.90;;;5.84;100.00;102336.06;5034907;28;20435;-79
2022/01/23 01:38:05;;;;;;;45.90;22.90;;;5.00;99.90;;;5.80;100.00;102340.53;5050087;28;20033;-79
2022/01/23 01:40:36;;;;;;;46.92;23.77;;;5.00;99.90;;;5.84;100.00;102339.66;5052000;28;20022;-81
2022/01/23 01:43:04;;;;;;;47.22;23.90;;;5.00;99.90;;;5.79;100.00;102336.91;5052008;28;20372;-80
2022/01/23 01:45:34;;;;;;;42.47;22.05;;;5.00;99.90;;;5.83;100.00;102332.47;5051702;28;20091;-81
2022/01/23 01:48:04;;;;;;;45.05;22.20;;;5.00;99.90;;;5.86;100.00;102333.88;5036327;28;20026;-82
2022/01/23 01:50:32;;;;;;;38.75;21.67;;;5.00;99.90;;;5.86;100.00;102330.25;5035318;28;20025;-77
2022/01/23 01:52:59;;;;;;;40.72;20.38;;;5.00;99.90;;;5.83;100.00;102328.88;5055012;28;20033;-81
2022/01/23 01:55:37;;;;;;;40.83;21.27;;;5.00;99.90;;;5.80;100.00;102334.97;5042867;28;20034;-82
2022/01/23 01:58:04;;;;;;;40.78;20.75;;;5.00;99.90;;;5.78;100.00;102326.94;5052217;28;20113;-82
2022/01/23 02:00:52;;;;;;;39.33;20.58;;;4.90;99.90;;;5.76;100.00;102339.44;5051645;28;20488;-82
2022/01/23 02:08:56;;;;;;;37.90;19.30;;;4.90;99.90;;;5.73;100.00;102340.00;5037560;28;20053;-81
2022/01/23 02:11:42;;;;;;;40.33;18.98;;;4.90;99.90;;;5.74;100.00;102350.81;5053859;28;20155;-82
2022/01/23 02:25:16;;;;;;;37.80;20.13;;;4.90;99.90;;;5.65;100.00;102327.56;5034541;28;20052;-81
2022/01/23 02:55:34;;;;;;;50.67;24.58;;;4.80;99.90;;;5.63;100.00;102343.66;5014618;28;20034;-81
2022/01/23 02:58:04;;;;;;;55.78;25.00;;;4.80;99.90;;;5.63;100.00;102348.38;5014487;28;20041;-79
2022/01/23 03:00:46;;;;;;;50.13;25.05;;;4.80;99.90;;;5.60;100.00;102351.69;4998180;28;20396;-79
2022/01/23 03:03:14;;;;;;;41.80;21.20;;;4.80;99.90;;;5.57;100.00;102350.34;5014054;28;20392;-81
2022/01/23 03:05:41;;;;;;;49.72;24.67;;;4.80;99.90;;;5.58;100.00;102352.00;4996712;28;20026;-79
2022/01/23 03:11:04;;;;;;;49.85;23.90;;;4.80;99.90;;;5.57;100.00;102353.09;5011461;28;20444;-81
2022/01/23 03:24:35;;;;;;;53.28;24.98;;;4.80;99.90;;;5.66;100.00;102373.56;5012989;28;20085;-81
2022/01/23 03:27:27;;;;;;;46.88;24.20;;;4.80;99.90;;;5.63;100.00;102376.09;5047012;28;20021;-81
2022/01/23 03:34:50;;;;;;;57.17;28.40;;;4.80;99.90;;;5.69;100.00;102367.47;5052770;28;20025;-80
2022/01/23 03:37:16;;;;;;;56.63;28.20;;;4.90;99.90;;;5.75;100.00;102369.09;5051704;28;20396;-79
2022/01/23 03:39:42;;;;;;;61.05;27.70;;;4.90;99.90;;;5.74;100.00;102373.00;5052945;28;20037;-79
2022/01/23 03:42:09;;;;;;;55.78;26.65;;;4.90;99.90;;;5.72;100.00;102374.38;5053170;28;20033;-81
2022/01/23 03:44:40;;;;;;;59.03;28.17;;;4.90;99.90;;;5.68;100.00;102367.75;5056031;28;20036;-80
2022/01/23 03:47:36;;;;;;;53.55;27.83;;;4.90;99.90;;;5.72;100.00;102375.22;5055666;28;20025;-79
2022/01/23 03:50:10;;;;;;;54.78;28.27;;;4.90;99.90;;;5.74;100.00;102375.78;5063148;28;20476;-83
2022/01/23 03:52:36;;;;;;;53.47;27.25;;;4.90;99.90;;;5.73;100.00;102379.66;5061254;28;20127;-82
2022/01/23 03:55:06;;;;;;;57.90;28.60;;;4.90;99.90;;;5.74;100.00;102386.88;5069992;28;20029;-82
2022/01/23 03:57:32;;;;;;;52.70;24.83;;;4.90;99.90;;;5.70;100.00;102387.72;5051203;22;20041;-77
2022/01/23 03:59:58;;;;;;;46.50;23.73;;;4.90;99.90;;;5.66;100.00;102390.22;5034346;28;20168;-76
2022/01/23 04:02:27;;;;;;;53.35;26.80;;;4.80;99.90;;;5.68;100.00;102395.50;5034658;28;20444;-77
2022/01/23 04:04:52;;;;;;;50.50;26.45;;;4.90;99.90;;;5.67;100.00;102388.28;5016689;28;20029;-76
2022/01/23 04:07:27;;;;;;;51.28;25.92;;;4.80;99.90;;;5.62;100.00;102389.09;5034874;28;20359;-78
2022/01/23 04:09:53;;;;;;;54.05;26.10;;;4.80;99.90;;;5.63;100.00;102393.56;5034746;28;20435;-78
2022/01/23 04:12:34;;;;;;;48.40;24.30;;;4.80;99.90;;;5.65;100.00;102398.84;5034878;28;20388;-78
2022/01/23 04:18:29;;;;;;;55.30;25.67;;;4.80;99.90;;;5.66;100.00;102389.38;5034292;28;20040;-76
2022/01/23 04:21:01;;;;;;;52.33;24.55;;;4.80;99.90;;;5.65;100.00;102384.97;5033372;28;20091;-76
2022/01/23 04:32:34;;;;;;;46.08;23.23;;;4.80;99.90;;;5.63;100.00;102379.69;5053984;28;20162;-76
2022/01/23 04:35:43;;;;;;;49.22;22.63;;;4.80;99.90;;;5.60;100.00;102371.94;5048191;28;20040;-78
2022/01/23 04:45:38;;;;;;;42.30;21.90;;;4.70;99.90;;;5.46;100.00;102379.19;5053663;28;20060;-77
2022/01/23 05:02:30;;;;;;;34.83;17.00;;;4.60;99.90;;;5.41;100.00;102376.44;5053374;28;20083;-77
2022/01/23 05:04:51;;;;;;;37.35;16.38;;;4.70;99.90;;;5.47;100.00;102371.72;5053753;28;20098;-78
2022/01/23 05:07:18;;;;;;;29.55;14.93;;;4.60;99.90;;;5.43;100.00;102382.53;5051829;28;20092;-78
2022/01/23 05:09:44;;;;;;;29.15;14.88;;;4.60;99.90;;;5.42;100.00;102380.06;5053339;28;20486;-76
2022/01/23 05:12:12;;;;;;;32.70;14.93;;;4.60;99.90;;;5.39;100.00;102380.63;5051808;28;20029;-78
2022/01/23 05:14:46;;;;;;;29.05;14.98;;;4.60;99.90;;;5.43;100.00;102385.28;5051934;28;20119;-77
2022/01/23 05:17:15;;;;;;;33.75;15.52;;;4.60;99.90;;;5.41;100.00;102384.75;5035374;28;20031;-77
2022/01/23 05:19:47;;;;;;;29.52;13.63;;;4.60;99.90;;;5.36;100.00;102384.78;5056230;28;20089;-77
2022/01/23 05:25:10;;;;;;;35.97;13.73;;;4.60;99.90;;;5.35;100.00;102388.66;5072676;28;20108;-78
2022/01/23 05:27:39;;;;;;;27.45;13.45;;;4.60;99.90;;;5.34;100.00;102395.31;5041375;28;20029;-78
2022/01/23 05:30:09;;;;;;;29.80;13.43;;;4.60;99.90;;;5.32;100.00;102397.53;5031970;28;20033;-77
2022/01/23 05:32:40;;;;;;;28.02;13.93;;;4.50;99.90;;;5.29;100.00;102389.78;5015693;28;20033;-78
2022/01/23 05:35:09;;;;;;;29.10;13.85;;;4.50;99.90;;;5.25;100.00;102381.22;5015517;28;20034;-78
2022/01/23 05:37:39;;;;;;;29.25;13.07;;;4.50;99.90;;;5.27;100.00;102392.00;5032683;28;20030;-76
2022/01/23 05:40:14;;;;;;;30.58;13.45;;;4.50;99.90;;;5.26;100.00;102391.19;5032990;28;20057;-76
2022/01/23 05:42:40;;;;;;;22.37;10.07;;;4.50;99.90;;;5.24;100.00;102395.31;5033351;28;20025;-76
2022/01/23 05:45:08;;;;;;;25.30;12.70;;;4.50;99.90;;;5.25;100.00;102400.59;5031548;28;20387;-77
2022/01/23 05:47:34;;;;;;;25.67;11.82;;;4.50;99.90;;;5.25;100.00;102405.31;5031748;28;20034;-77
2022/01/23 05:50:05;;;;;;;28.98;14.18;;;4.50;99.90;;;5.26;100.00;102406.97;5032850;28;20057;-78
2022/01/23 05:52:36;;;;;;;27.60;13.73;;;4.50;99.90;;;5.24;100.00;102400.88;5015283;28;20038;-77
2022/01/23 05:55:04;;;;;;;30.65;14.52;;;4.50;99.90;;;5.24;100.00;102411.94;5033212;28;20033;-78
2022/01/23 05:57:30;;;;;;;31.52;15.85;;;4.50;99.90;;;5.24;100.00;102407.25;5032264;28;20642;-77
2022/01/23 05:59:56;;;;;;;34.28;16.58;;;4.50;99.90;;;5.24;100.00;102410.00;5032448;28;20120;-78
2022/01/23 06:02:27;;;;;;;38.63;17.27;;;4.50;99.90;;;5.25;100.00;102413.63;5032459;28;20389;-76
2022/01/23 06:04:56;;;;;;;35.25;16.98;;;4.50;99.90;;;5.27;100.00;102412.22;5032195;28;20033;-76
2022/01/23 06:07:22;;;;;;;34.30;15.40;;;4.50;99.90;;;5.28;100.00;102411.13;5031970;28;20029;-77
2022/01/23 06:09:49;;;;;;;40.53;18.23;;;4.50;99.90;;;5.29;100.00;102420.25;5032611;28;20030;-77
2022/01/23 06:12:14;;;;;;;35.35;16.33;;;4.50;99.90;;;5.30;100.00;102422.75;5014383;28;20040;-77
2022/01/23 06:14:40;;;;;;;44.45;18.35;;;4.50;99.90;;;5.30;100.00;102413.59;5032184;28;20029;-76
2022/01/23 06:17:09;;;;;;;35.03;16.13;;;4.50;99.90;;;5.33;100.00;102411.09;5014338;28;20036;-76
2022/01/23 06:19:39;;;;;;;38.22;17.13;;;4.50;99.90;;;5.35;100.00;102419.13;5014236;28;20152;-76
2022/01/23 06:22:05;;;;;;;41.08;16.73;;;4.60;99.90;;;5.37;100.00;102414.13;5032143;28;20021;-75
2022/01/23 06:24:32;;;;;;;31.92;15.05;;;4.60;99.90;;;5.39;100.00;102420.25;5032048;28;20035;-77
2022/01/23 06:27:01;;;;;;;32.05;15.07;;;4.60;99.90;;;5.43;100.00;102423.25;5048600;28;20429;-77
2022/01/23 06:29:33;;;;;;;32.60;15.25;;;4.60;99.90;;;5.43;100.00;102423.25;5050855;28;20036;-77
2022/01/23 06:32:03;;;;;;;32.38;15.10;;;4.60;99.90;;;5.44;100.00;102411.06;5052357;28;20533;-77
2022/01/23 06:34:31;;;;;;;38.22;18.00;;;4.60;99.90;;;5.44;100.00;102416.63;5050835;28;20048;-77
2022/01/23 06:36:57;;;;;;;40.42;18.10;;;4.60;99.90;;;5.45;100.00;102421.91;5052017;28;20028;-76
2022/01/23 06:39:24;;;;;;;37.80;17.42;;;4.60;99.90;;;5.43;100.00;102412.19;5051973;28;20025;-79
2022/01/23 06:41:51;;;;;;;39.38;17.65;;;4.60;99.90;;;5.41;100.00;102419.94;5033831;28;20029;-77
2022/01/23 06:44:18;;;;;;;45.45;20.27;;;4.60;99.90;;;5.39;100.00;102423.03;5051996;28;20100;-76
2022/01/23 06:46:50;;;;;;;38.28;16.60;;;4.60;99.90;;;5.42;100.00;102418.84;5051905;28;20028;-76
2022/01/23 06:49:19;;;;;;;44.58;19.45;;;4.60;99.90;;;5.45;100.00;102424.66;5052184;28;20395;-76
2022/01/23 06:51:47;;;;;;;39.97;18.60;;;4.60;99.90;;;5.47;100.00;102427.97;5051596;28;20035;-76
2022/01/23 06:54:12;;;;;;;40.00;18.10;;;4.70;99.90;;;5.46;100.00;102426.31;5034076;28;20404;-77
2022/01/23 06:56:41;;;;;;;38.38;17.52;;;4.70;99.90;;;5.48;100.00;102431.59;5033904;28;20032;-77
2022/01/23 06:59:13;;;;;;;46.58;20.52;;;4.70;99.90;;;5.48;100.00;102420.50;5051130;28;20048;-77
2022/01/23 07:01:40;;;;;;;41.72;18.55;;;4.70;99.90;;;5.49;100.00;102424.94;5051379;28;20033;-77
2022/01/23 07:04:06;;;;;;;35.40;16.98;;;4.70;99.90;;;5.47;100.00;102427.97;5051645;28;20029;-77
2022/01/23 07:06:32;;;;;;;41.17;18.30;;;4.70;99.90;;;5.48;100.00;102426.88;5051912;28;20442;-76
2022/01/23 07:09:01;;;;;;;38.42;18.30;;;4.70;99.90;;;5.50;100.00;102437.66;5051601;28;20028;-78
2022/01/23 07:11:26;;;;;;;45.22;18.95;;;4.70;99.90;;;5.49;100.00;102436.81;5051992;28;20028;-79
2022/01/23 07:13:52;;;;;;;45.35;20.48;;;4.70;99.90;;;5.51;100.00;102439.34;5049344;28;20044;-76
2022/01/23 07:16:18;;;;;;;53.25;23.05;;;4.70;99.90;;;5.53;100.00;102439.88;5050827;28;20357;-78
2022/01/23 07:18:50;;;;;;;52.83;24.73;;;4.70;99.90;;;5.54;100.00;102450.69;5051717;28;20041;-78
2022/01/23 07:21:15;;;;;;;53.50;23.65;;;4.70;99.90;;;5.54;100.00;102450.69;5053239;28;20047;-77
2022/01/23 07:23:50;;;;;;;55.67;24.33;;;4.70;99.90;;;5.57;100.00;102449.28;5054154;28;20024;-77
2022/01/23 07:26:22;;;;;;;52.63;23.58;;;4.70;99.90;;;5.55;100.00;102457.06;5043971;28;20036;-77
2022/01/23 07:28:52;;;;;;;50.63;23.63;;;4.70;99.90;;;5.57;100.00;102471.47;5034900;28;20393;-76
2022/01/23 07:34:10;;;;;;;51.95;23.35;;;4.70;99.90;;;5.58;100.00;102471.19;5034260;28;20036;-78
2022/01/23 07:36:38;;;;;;;46.40;21.98;;;4.80;99.90;;;5.56;100.00;102476.19;5016346;28;20275;-77
2022/01/23 07:39:07;;;;;;;57.20;24.77;;;4.80;99.90;;;5.60;100.00;102477.28;5034319;28;20404;-78
2022/01/23 07:41:34;;;;;;;55.08;24.33;;;4.80;99.90;;;5.58;100.00;102471.19;5034292;28;20029;-76
2022/01/23 07:44:01;;;;;;;61.80;25.95;;;4.80;99.90;;;5.58;100.00;102470.38;5034952;28;20488;-76
2022/01/23 07:46:28;;;;;;;64.43;27.25;;;4.80;99.90;;;5.62;100.00;102468.69;5034034;28;20445;-78
2022/01/23 07:48:53;;;;;;;60.13;25.95;;;4.80;99.90;;;5.61;100.00;102478.94;5034342;28;20396;-78
2022/01/23 07:51:23;;;;;;;64.25;27.13;;;4.80;99.90;;;5.61;100.00;102476.19;5034565;28;20026;-78
2022/01/23 07:53:49;;;;;;;52.72;24.27;;;4.80;99.90;;;5.62;100.00;102483.38;5034265;28;20505;-76
2022/01/23 07:56:15;;;;;;;51.03;22.95;;;4.80;99.90;;;5.62;100.00;102477.03;5034286;28;20226;-78
2022/01/23 07:58:41;;;;;;;51.42;22.33;;;4.80;99.90;;;5.63;100.00;102470.34;4913805;28;3457910;-77
2022/01/23 08:01:07;;;;;;;49.55;22.70;;;4.80;99.90;;;5.63;100.00;102473.94;5035479;28;20480;-77
2022/01/23 08:03:36;;;;;;;57.22;21.90;;;4.80;99.90;;;5.64;100.00;102472.84;5035032;28;20049;-78
2022/01/23 08:06:02;;;;;;;52.42;23.58;;;4.80;99.90;;;5.66;100.00;102476.16;5017074;28;20484;-77
2022/01/23 08:08:27;;;;;;;51.05;22.95;;;4.90;99.90;;;5.67;100.00;102485.31;5034967;28;20036;-76
2022/01/23 08:10:56;;;;;;;56.13;24.65;;;4.90;99.90;;;5.68;100.00;102485.00;5035467;28;20083;-77
2022/01/23 08:13:22;;;;;;;56.30;23.98;;;4.90;99.90;;;5.71;100.00;102492.78;5035706;28;20364;-76
2022/01/23 08:15:48;;;;;;;52.10;24.00;;;4.90;99.90;;;5.74;100.00;102485.84;5034171;28;20124;-77
2022/01/23 08:18:15;;;;;;;57.90;24.55;;;4.90;99.90;;;5.76;100.00;102486.38;5035081;28;20397;-77
2022/01/23 08:20:44;;;;;;;64.35;28.10;;;4.90;99.90;;;5.79;100.00;102497.75;5035012;28;20391;-78
2022/01/23 08:23:12;;;;;;;58.83;26.48;;;4.90;99.90;;;5.81;100.00;102497.47;5017065;28;20092;-78
2022/01/23 08:25:38;;;;;;;58.47;25.55;;;5.00;99.90;;;5.82;100.00;102502.72;5041096;28;20338;-77
2022/01/23 08:28:07;;;;;;;57.97;25.77;;;5.00;99.90;;;5.87;100.00;102498.31;5053268;28;20385;-77
2022/01/23 08:30:34;;;;;;;63.20;26.58;;;5.00;99.90;;;5.88;100.00;102499.97;5054275;28;20472;-77
2022/01/23 08:33:00;;;;;;;56.95;26.30;;;5.10;99.90;;;5.92;100.00;102498.28;5053455;28;20029;-77
2022/01/23 08:35:29;;;;;;;60.50;26.08;;;5.10;99.90;;;5.96;100.00;102504.94;5054482;28;20029;-77
2022/01/23 08:37:55;;;;;;;55.28;24.95;;;5.10;99.90;;;5.96;100.00;102505.78;5054724;28;20099;-76
2022/01/23 08:43:06;;;;;;;58.63;25.42;;;5.10;99.90;;;6.07;100.00;102509.38;5062725;28;20066;-76
2022/01/23 08:45:31;;;;;;;59.65;25.25;;;5.20;99.90;;;6.10;100.00;102506.81;5062495;28;20544;-77
2022/01/23 08:48:00;;;;;;;55.78;25.33;;;5.20;99.90;;;6.13;100.00;102511.00;5061332;28;20056;-77
2022/01/23 08:50:29;;;;;;;55.50;25.35;;;5.20;99.90;;;6.15;100.00;102520.69;5060971;28;20055;-77
2022/01/23 08:52:55;;;;;;;59.08;24.98;;;5.30;99.90;;;6.17;100.00;102523.16;5062571;28;20029;-77
2022/01/23 08:55:21;;;;;;;59.50;28.13;;;5.30;99.90;;;6.15;100.00;102526.25;5059421;28;20037;-78
2022/01/23 08:57:47;;;;;;;57.28;26.88;;;5.30;99.90;;;6.18;100.00;102522.91;5054895;28;20491;-77
2022/01/23 09:00:15;;;;;;;56.35;23.90;;;5.30;99.90;;;6.24;100.00;102521.75;5053401;28;20044;-77
2022/01/23 09:02:41;;;;;;;62.80;26.88;;;5.40;99.90;;;6.30;100.00;102520.63;5055926;28;20492;-78
2022/01/23 09:05:11;;;;;;;60.38;26.02;;;5.40;99.90;;;6.39;100.00;102517.28;5054896;28;20086;-76
2022/01/23 09:07:37;;;;;;;60.90;26.38;;;5.50;99.90;;;6.47;100.00;102522.22;5053436;28;20391;-76
2022/01/23 09:10:04;;;;;;;56.88;25.52;;;5.50;99.90;;;6.52;100.00;102516.66;5054665;28;20028;-76
2022/01/23 09:15:07;;;;;;;59.67;25.10;;;5.60;99.90;;;6.61;100.00;102520.47;5054935;28;20492;-76
2022/01/23 09:17:39;;;;;;;51.42;25.13;;;5.60;99.90;;;6.62;100.00;102524.91;5037114;28;20052;-77
2022/01/23 09:20:06;;;;;;;61.65;26.75;;;5.70;99.90;;;6.67;100.00;102528.50;5055132;28;20024;-76
2022/01/23 09:22:35;;;;;;;57.90;26.15;;;5.70;99.90;;;6.63;100.00;102521.84;5054606;28;20075;-76
2022/01/23 09:25:01;;;;;;;51.75;23.35;;;5.70;99.90;;;6.67;100.00;102517.41;5054593;28;20025;-77
2022/01/23 09:27:29;;;;;;;61.70;27.35;;;5.70;99.90;;;6.71;100.00;102521.22;5035268;28;20045;-78
2022/01/23 09:30:05;;;;;;;60.55;26.58;;;5.80;99.90;;;6.76;100.00;102518.44;5017838;28;20033;-78
2022/01/23 09:32:32;;;;;;;56.22;25.40;;;5.80;99.90;;;6.84;100.00;102520.59;5034960;28;20100;-79
2022/01/23 09:34:58;;;;;;;61.75;27.15;;;5.90;99.90;;;6.91;100.00;102520.28;5034897;28;20025;-77
2022/01/23 09:37:27;;;;;;;63.58;28.60;;;5.90;99.90;;;6.97;100.00;102524.66;5034620;28;20067;-76
2022/01/23 09:39:53;;;;;;;58.38;27.25;;;5.90;99.90;;;6.99;100.00;102524.41;5035083;28;20021;-77
2022/01/23 09:42:22;;;;;;;59.35;28.52;;;5.90;99.90;;;7.01;100.00;102530.50;5019954;28;20395;-77
2022/01/23 09:44:57;;;;;;;58.80;27.77;;;6.00;99.90;;;7.03;100.00;102526.28;5037389;28;20039;-77
2022/01/23 09:47:24;;;;;;;62.92;29.88;;;6.00;99.90;;;7.01;100.00;102538.81;5035502;28;20032;-79
2022/01/23 09:49:54;;;;;;;59.95;27.38;;;6.00;99.90;;;7.05;100.00;102528.78;5034635;28;20171;-76
2022/01/23 09:52:22;;;;;;;53.40;25.77;;;6.10;99.90;;;7.10;100.00;102534.31;5034609;28;20038;-77
2022/01/23 09:55:07;;;;;;;53.80;24.73;;;6.10;99.90;;;7.17;100.00;102532.88;5017087;28;20037;-75
2022/01/23 09:57:36;;;;;;;51.97;26.10;;;6.20;99.90;;;7.20;100.00;102539.78;5056922;22;20049;-80
2022/01/23 10:00:11;;;;;;;58.53;27.75;;;6.20;99.90;;;7.29;100.00;102551.94;5035181;28;20030;-82
2022/01/23 10:02:37;;;;;;;52.25;26.60;;;6.30;99.90;;;7.27;100.00;102546.69;5037203;28;20104;-82
2022/01/23 10:05:06;;;;;;;54.88;26.83;;;6.30;99.90;;;7.29;100.00;102547.22;5036985;28;20100;-84
2022/01/23 10:07:42;;;;;;;50.55;23.63;;;6.30;99.90;;;7.33;100.00;102551.09;5026190;28;20116;-82
2022/01/23 10:10:17;;;;;;;53.85;24.77;;;6.30;99.90;;;7.33;100.00;102544.69;5036147;28;20452;-82
2022/01/23 10:12:58;;;;;;;46.65;23.48;;;6.30;99.90;;;7.37;100.00;102552.16;5018088;28;20520;-84
2022/01/23 10:15:30;;;;;;;50.55;25.25;;;6.40;99.90;;;7.42;100.00;102554.88;5035592;28;20029;-83
2022/01/23 10:17:58;;;;;;;52.50;25.10;;;6.40;99.90;;;7.48;100.00;102550.09;5017222;28;20029;-80
2022/01/23 10:20:25;;;;;;;49.28;25.02;;;6.50;99.90;;;7.54;100.00;102554.53;5034355;28;20029;-81
2022/01/23 10:22:55;;;;;;;46.22;21.73;;;6.50;99.90;;;7.59;100.00;102559.19;5034257;28;20104;-81
2022/01/23 10:25:30;;;;;;;51.00;24.95;;;6.60;99.90;;;7.65;100.00;102555.25;5017266;28;20033;-83
2022/01/23 10:28:12;;;;;;;49.40;24.60;;;6.60;99.90;;;7.69;100.00;102551.59;5016755;28;20028;-82
2022/01/23 10:30:53;;;;;;;47.20;23.48;;;6.70;99.90;;;7.75;100.00;102553.22;5034222;28;20083;-82
2022/01/23 10:33:35;;;;;;;48.00;24.20;;;6.70;99.90;;;7.78;100.00;102557.34;5018312;28;20106;-83
2022/01/23 10:36:16;;;;;;;43.88;22.73;;;6.80;99.90;;;7.85;100.00;102558.69;5034092;28;20025;-80
2022/01/23 10:39:00;;;;;;;48.85;24.63;;;6.90;99.90;;;7.88;100.00;102549.75;5033963;28;20089;-81
2022/01/23 10:41:49;;;;;;;45.60;23.40;;;6.90;99.90;;;7.88;100.00;102546.94;5016913;28;20042;-80
2022/01/23 10:49:56;;;;;;;46.95;24.40;;;6.90;99.90;;;7.94;100.00;102542.16;5033823;28;20451;-82
2022/01/23 10:52:47;;;;;;;42.15;22.95;;;6.90;99.90;;;7.95;100.00;102541.88;5015808;28;20029;-78
2022/01/23 10:55:13;;;;;;;49.58;23.85;;;6.90;99.90;;;8.04;100.00;102541.22;5015984;28;20029;-81
2022/01/23 10:57:45;;;;;;;49.78;24.10;;;7.00;99.90;;;8.02;100.00;102540.69;5016241;28;20374;-81
2022/01/23 11:00:31;;;;;;;42.60;22.50;;;7.10;99.90;;;8.08;100.00;102534.78;5018040;28;20041;-82
2022/01/23 11:03:02;;;;;;;45.90;22.58;;;7.10;99.90;;;8.10;100.00;102531.69;5036568;28;20562;-82
2022/01/23 11:05:41;;;;;;;41.22;21.25;;;7.10;99.90;;;8.12;100.00;102527.50;5015896;28;20255;-83
2022/01/23 11:08:28;;;;;;;48.65;25.15;;;7.20;99.90;;;8.19;100.00;102532.69;5016726;28;20508;-82
2022/01/23 11:11:08;;;;;;;46.72;23.35;;;7.20;99.90;;;8.18;100.00;102525.47;5016025;28;20065;-83
2022/01/23 11:19:24;;;;;;;38.67;19.55;;;7.20;99.90;;;8.30;100.00;102523.97;5037716;28;20036;-81
2022/01/23 11:21:55;;;;;;;38.80;20.77;;;7.30;99.90;;;8.39;100.00;102527.72;5015053;28;20092;-81
2022/01/23 11:24:33;;;;;;;39.10;20.20;;;7.30;99.90;;;8.41;100.00;102533.03;5017360;28;20029;-83
2022/01/23 11:27:02;;;;;;;36.60;20.15;;;7.40;99.90;;;8.52;100.00;102525.34;5051387;28;20200;-81
2022/01/23 11:29:28;;;;;;;43.95;23.13;;;7.50;99.90;;;8.60;100.00;102519.94;5054983;28;20404;-81
2022/01/23 11:31:58;;;;;;;47.33;23.42;;;7.50;99.90;;;8.45;100.00;102517.34;5055643;28;20388;-81
2022/01/23 11:34:29;;;;;;;39.63;23.05;;;7.40;99.90;;;8.44;100.00;102512.94;5036130;28;20074;-79
2022/01/23 11:36:57;;;;;;;42.35;21.88;;;7.50;99.90;;;8.50;100.00;102508.13;5052445;28;20029;-83
2022/01/23 11:39:39;;;;;;;42.45;22.23;;;7.50;99.90;;;8.51;100.00;102501.44;5053302;28;20033;-81
2022/01/23 11:56:31;;;;;;;35.55;17.77;;;7.60;99.90;;;8.51;100.00;102507.78;5052854;28;20047;-81
2022/01/23 11:59:33;;;;;;;35.38;18.85;;;7.50;99.90;;;8.39;100.00;102505.47;5051051;28;20037;-84
2022/01/23 12:02:20;;;;;;;38.63;18.98;;;7.40;99.90;;;8.32;100.00;102501.38;5045568;28;20101;-84
2022/01/23 12:05:16;;;;;;;36.03;20.02;;;7.30;99.90;;;8.16;100.00;102500.72;5076966;28;20070;-78
2022/01/23 12:08:16;;;;;;;35.42;18.92;;;7.20;99.90;;;8.14;100.00;102494.63;5069237;28;20029;-82
2022/01/23 12:11:35;;;;;;;34.60;18.25;;;7.20;99.90;;;8.19;100.00;102499.28;5057554;28;20036;-82
2022/01/23 12:17:41;;;;;;;31.30;17.30;;;7.20;99.90;;;8.12;100.00;102491.31;5055546;28;20075;-84
2022/01/23 12:20:08;;;;;;;35.63;17.67;;;7.20;99.90;;;8.17;100.00;102487.63;5056680;28;20116;-82
2022/01/23 12:22:54;;;;;;;32.15;16.67;;;7.20;99.90;;;8.12;100.00;102485.75;5054956;28;20035;-82
2022/01/23 12:25:28;;;;;;;30.20;16.05;;;7.20;99.90;;;8.15;99.71;102490.72;5052497;28;20497;-81
2022/01/23 12:28:28;;;;;;;33.35;16.23;;;7.20;99.90;;;8.08;99.59;102495.81;5035022;28;20033;-84
2022/01/23 12:31:17;;;;;;;29.48;16.23;;;7.20;99.90;;;8.07;100.00;102494.16;5035703;28;20026;-81
2022/01/23 12:33:53;;;;;;;33.78;16.17;;;7.10;99.90;;;8.03;100.00;102493.06;5037697;28;20026;-81
2022/01/23 12:36:27;;;;;;;29.65;16.20;;;7.10;99.90;;;8.05;100.00;102485.28;5052141;28;20026;-80
2022/01/23 12:39:17;;;;;;;35.40;18.70;;;7.20;99.90;;;8.11;100.00;102486.88;5051981;28;20037;-82
2022/01/23 12:41:59;;;;;;;32.83;17.60;;;7.10;99.90;;;7.98;100.00;102484.78;5052381;28;20021;-82
2022/01/23 12:44:26;;;;;;;31.05;15.98;;;7.00;99.90;;;7.89;100.00;102475.44;5037228;28;20029;-83
2022/01/23 12:47:04;;;;;;;31.30;16.17;;;7.00;99.90;;;7.83;100.00;102477.44;5038713;28;20030;-81
2022/01/23 12:49:46;;;;;;;24.08;14.40;;;7.00;99.90;;;7.81;100.00;102467.75;5035808;28;20029;-84
2022/01/23 12:52:19;;;;;;;37.92;18.58;;;6.90;99.90;;;7.84;100.00;102476.31;5037134;28;20108;-83
2022/01/23 12:54:51;;;;;;;31.80;17.33;;;6.90;99.90;;;7.78;100.00;102469.16;5034944;28;20053;-82
2022/01/23 12:57:41;;;;;;;28.92;14.77;;;6.90;99.90;;;7.74;100.00;102472.81;5035788;28;20030;-82
2022/01/23 13:00:24;;;;;;;29.52;15.75;;;6.80;99.90;;;7.68;100.00;102466.50;5034733;28;20029;-82
2022/01/23 13:02:53;;;;;;;28.00;15.88;;;6.80;99.90;;;7.68;100.00;102466.50;5036349;28;20022;-81
2022/01/23 13:05:22;;;;;;;27.60;16.30;;;6.80;99.90;;;7.64;100.00;102475.75;5035853;28;20462;-82
2022/01/23 13:13:23;;;;;;;27.10;14.40;;;6.70;99.90;;;7.65;100.00;102471.81;5035400;28;20053;-83
2022/01/23 13:16:15;;;;;;;26.38;14.48;;;6.70;99.90;;;7.65;100.00;102466.25;5050356;28;20045;-82
2022/01/23 13:19:18;;;;;;;31.05;16.27;;;6.70;99.90;;;7.58;100.00;102461.03;5050963;28;20029;-79
2022/01/23 13:33:09;;;;;;;34.60;17.17;;;6.60;99.90;;;7.49;100.00;102467.53;5014702;28;20077;-81